Time;durP1;ratioP1;P1;durP2;ratioP2;P2;SDS_P1;SDS_P2;PMS_P1;PMS_P2;Temp;Humidity;BMP_temperature;BMP_pressure;BME280_temperature;BME280_humidity;BME280_pressure;Samples;Min_cycle;Max_cycle;Signal;HPM_P1;HPM_P2
2024/03/22 00:02:18;;;;;;;92.95;36.13;;;;;;;13.04;100.00;102191.25;5265381;28;20529;-74
2024/03/22 00:04:48;;;;;;;92.53;36.60;;;;;;;13.05;100.00;102187.59;5269863;28;20028;-74
2024/03/22 00:07:18;;;;;;;98.63;36.90;;;;;;;13.05;100.00;102181.31;5263550;28;20020;-75
2024/03/22 00:09:49;;;;;;;99.40;37.10;;;;;;;13.07;100.00;102174.81;5269265;28;20024;-75
2024/03/22 00:12:19;;;;;;;88.35;34.15;;;;;;;13.08;100.00;102171.09;5269445;28;20028;-75
2024/03/22 00:14:52;;;;;;;85.60;35.00;;;;;;;13.07;100.00;102165.88;5268731;28;20511;-74
2024/03/22 00:17:23;;;;;;;98.25;38.58;;;;;;;13.10;100.00;102162.88;5268415;28;20050;-75
2024/03/22 00:19:53;;;;;;;99.00;36.72;;;;;;;13.09;100.00;102167.41;5269731;28;20024;-75
2024/03/22 00:22:23;;;;;;;91.65;37.38;;;;;;;13.13;100.00;102166.13;5266024;28;20024;-74
2024/03/22 00:24:54;;;;;;;89.63;34.75;;;;;;;13.14;100.00;102158.88;5266436;28;20385;-76
2024/03/22 00:27:24;;;;;;;94.72;36.92;;;;;;;13.13;100.00;102166.13;5266716;28;20035;-75
2024/03/22 00:29:55;;;;;;;98.13;38.28;;;;;;;13.15;100.00;102161.44;5269635;28;20020;-75
2024/03/22 00:32:25;;;;;;;96.80;37.03;;;;;;;13.15;100.00;102174.91;5266707;28;20024;-75
2024/03/22 00:34:56;;;;;;;91.72;36.80;;;;;;;13.17;100.00;102172.06;5269444;28;20027;-75
2024/03/22 00:37:27;;;;;;;93.38;36.95;;;;;;;13.14;100.00;102167.81;5268515;28;20024;-75
2024/03/22 00:39:58;;;;;;;100.47;38.88;;;;;;;13.14;100.00;102161.56;5268051;28;20059;-74
2024/03/22 00:42:28;;;;;;;98.70;37.40;;;;;;;13.13;100.00;102165.28;5267091;28;20410;-74
2024/03/22 00:44:59;;;;;;;101.75;38.13;;;;;;;13.11;100.00;102160.03;5271275;28;20031;-75
2024/03/22 00:47:29;;;;;;;94.03;36.28;;;;;;;13.10;100.00;102144.88;5270611;28;20024;-74
2024/03/22 00:50:01;;;;;;;87.47;35.58;;;;;;;13.10;100.00;102152.09;5268718;28;20153;-75
2024/03/22 00:52:32;;;;;;;94.75;37.55;;;;;;;13.08;100.00;102141.47;5268274;28;20028;-75
2024/03/22 00:55:03;;;;;;;86.50;34.88;;;;;;;13.08;100.00;102136.09;5272098;28;20043;-75
2024/03/22 00:57:33;;;;;;;85.78;35.45;;;;;;;13.07;100.00;102126.31;5272698;28;20427;-75
2024/03/22 01:00:04;;;;;;;75.65;33.40;;;;;;;13.10;100.00;102123.34;5270681;28;20034;-75
2024/03/22 01:02:35;;;;;;;87.07;33.58;;;;;;;13.10;100.00;102122.44;5268957;28;20028;-74
2024/03/22 01:05:05;;;;;;;75.78;31.67;;;;;;;13.12;100.00;102112.38;5274245;28;20031;-75
2024/03/22 01:07:36;;;;;;;81.40;32.30;;;;;;;13.10;100.00;102111.69;5268400;28;20062;-75
2024/03/22 01:10:07;;;;;;;75.82;30.63;;;;;;;13.06;100.00;102115.69;5272874;28;20023;-75
2024/03/22 01:12:39;;;;;;;70.20;30.02;;;;;;;13.04;100.00;102106.91;5268281;28;20035;-75
2024/03/22 01:15:09;;;;;;;68.07;30.13;;;;;;;13.04;100.00;102101.50;5274346;28;20073;-75
2024/03/22 01:17:40;;;;;;;67.00;28.13;;;;;;;13.04;100.00;102098.81;5269301;28;20020;-74
2024/03/22 01:20:10;;;;;;;59.15;27.65;;;;;;;13.04;100.00;102093.44;5270763;28;20473;-75
2024/03/22 01:22:41;;;;;;;57.88;27.50;;;;;;;13.02;100.00;102088.22;5268843;28;20054;-75
2024/03/22 01:25:11;;;;;;;62.55;28.45;;;;;;;13.01;100.00;102078.44;5267810;28;20389;-75
2024/03/22 01:27:42;;;;;;;67.13;27.35;;;;;;;13.02;100.00;102073.91;5269204;28;20524;-75
2024/03/22 01:30:12;;;;;;;64.45;26.40;;;;;;;13.02;100.00;102073.91;5266906;28;20023;-75
2024/03/22 01:32:43;;;;;;;51.78;25.33;;;;;;;13.00;100.00;102075.88;5268447;28;20057;-75
2024/03/22 01:35:13;;;;;;;59.38;25.52;;;;;;;13.05;100.00;102077.13;5270844;28;20119;-75
2024/03/22 01:37:44;;;;;;;57.83;27.25;;;;;;;13.12;100.00;102077.38;5271350;28;20370;-74
2024/03/22 01:40:14;;;;;;;57.55;24.85;;;;;;;13.12;100.00;102075.50;5269974;28;20028;-75
2024/03/22 01:42:45;;;;;;;61.60;25.63;;;;;;;13.09;100.00;102081.19;5267189;28;20016;-75
2024/03/22 01:45:16;;;;;;;59.10;24.08;;;;;;;13.07;100.00;102072.44;5270003;28;20042;-75
2024/03/22 01:47:46;;;;;;;58.75;26.40;;;;;;;13.05;100.00;102070.88;5270013;28;20020;-75
2024/03/22 01:50:18;;;;;;;54.30;24.88;;;;;;;13.03;100.00;102064.81;5271287;28;20034;-75
2024/03/22 01:52:48;;;;;;;52.95;24.20;;;;;;;12.96;100.00;102068.13;5267811;28;20393;-75
2024/03/22 01:55:19;;;;;;;57.30;25.20;;;;;;;12.93;100.00;102054.09;5265973;28;20024;-75
2024/03/22 01:57:52;;;;;;;54.65;25.58;;;;;;;12.89;100.00;102058.09;5273100;28;20095;-75
2024/03/22 02:00:23;;;;;;;64.40;25.75;;;;;;;12.81;100.00;102052.63;5268591;28;20488;-74
2024/03/22 02:02:53;;;;;;;64.88;27.25;;;;;;;12.88;100.00;102053.72;5268487;28;20103;-74
2024/03/22 02:05:24;;;;;;;67.25;27.42;;;;;;;12.87;100.00;102052.03;5270652;28;20020;-74
2024/03/22 02:07:56;;;;;;;60.50;26.67;;;;;;;12.88;100.00;102051.00;5270329;28;20505;-75
2024/03/22 02:10:27;;;;;;;57.72;26.75;;;;;;;12.86;100.00;102050.34;5271220;28;20049;-75
2024/03/22 02:12:57;;;;;;;54.40;25.77;;;;;;;12.84;100.00;102044.22;5270124;28;20024;-74
2024/03/22 02:15:28;;;;;;;54.92;27.48;;;;;;;12.87;100.00;102052.03;5269984;28;20089;-74
2024/03/22 02:17:58;;;;;;;63.95;28.55;;;;;;;12.83;100.00;102043.38;5271973;28;20024;-75
2024/03/22 02:20:29;;;;;;;56.67;26.50;;;;;;;12.88;100.00;102040.25;5267820;28;20016;-75
2024/03/22 02:23:00;;;;;;;60.65;27.30;;;;;;;12.85;100.00;102037.84;5267281;28;20027;-75
2024/03/22 02:25:30;;;;;;;64.45;29.13;;;;;;;12.89;100.00;102034.69;5267171;28;20544;-74
2024/03/22 02:28:01;;;;;;;60.85;28.45;;;;;;;12.92;100.00;102026.31;5270220;28;20035;-75
2024/03/22 02:30:31;;;;;;;60.67;30.67;;;;;;;12.92;100.00;102025.47;5271022;28;20409;-75
2024/03/22 02:33:02;;;;;;;62.47;27.95;;;;;;;12.96;100.00;102025.03;5275232;28;20039;-75
2024/03/22 02:35:32;;;;;;;57.55;26.02;;;;;;;12.93;100.00;102017.22;5272838;28;20020;-75
2024/03/22 02:38:03;;;;;;;62.80;26.95;;;;;;;12.92;100.00;102022.78;5276325;28;20032;-75
2024/03/22 02:40:34;;;;;;;54.05;26.92;;;;;;;12.95;100.00;102022.47;5271262;28;20469;-75
2024/03/22 02:43:05;;;;;;;57.97;26.63;;;;;;;12.97;100.00;102025.88;5275547;28;20503;-75
2024/03/22 02:45:35;;;;;;;55.10;25.95;;;;;;;12.97;100.00;102015.09;5273159;28;20016;-75
2024/03/22 02:48:06;;;;;;;57.65;26.60;;;;;;;13.01;100.00;102012.94;5274802;28;20028;-75
2024/03/22 02:50:38;;;;;;;54.40;26.83;;;;;;;12.99;100.00;102015.78;5272376;28;20020;-75
2024/03/22 02:53:09;;;;;;;58.20;27.50;;;;;;;12.99;100.00;102007.69;5271789;28;20059;-75
2024/03/22 02:55:40;;;;;;;65.57;25.95;;;;;;;12.97;100.00;102012.41;5274878;28;20504;-76
2024/03/22 02:58:10;;;;;;;55.92;25.42;;;;;;;12.99;100.00;102007.69;5275614;28;20055;-75
2024/03/22 03:00:41;;;;;;;56.78;25.38;;;;;;;12.97;100.00;102012.41;5273556;28;20036;-75
2024/03/22 03:03:12;;;;;;;55.38;25.67;;;;;;;12.93;100.00;102002.91;5273485;28;20028;-75
2024/03/22 03:05:43;;;;;;;54.95;25.38;;;;;;;12.91;100.00;102003.09;5270520;28;20020;-75
2024/03/22 03:08:14;;;;;;;58.70;26.20;;;;;;;12.88;100.00;101999.84;5276832;28;20024;-74
2024/03/22 03:10:45;;;;;;;52.70;25.35;;;;;;;12.90;100.00;102003.22;5271385;28;20028;-75
2024/03/22 03:13:16;;;;;;;62.92;26.15;;;;;;;12.87;100.00;101999.00;5274175;28;20434;-74
2024/03/22 03:15:47;;;;;;;48.95;22.70;;;;;;;12.85;100.00;101998.31;5268406;28;20020;-75
2024/03/22 03:18:18;;;;;;;53.55;25.00;;;;;;;12.83;100.00;101997.59;5270902;28;20024;-75
2024/03/22 03:20:57;;;;;;;56.85;24.02;;;;;;;12.80;100.00;101989.84;5274572;28;20027;-75
2024/03/22 03:23:27;;;;;;;48.63;23.27;;;;;;;12.80;100.00;101978.22;5267403;27;21267;-75
2024/03/22 03:25:58;;;;;;;49.05;24.02;;;;;;;12.77;100.00;101976.69;5274393;28;20031;-75
2024/03/22 03:28:30;;;;;;;58.20;23.63;;;;;;;12.81;100.00;101971.84;5270834;28;20024;-75
2024/03/22 03:31:01;;;;;;;54.10;23.17;;;;;;;12.79;100.00;101969.28;5275287;28;20409;-74
2024/03/22 03:33:32;;;;;;;51.75;22.55;;;;;;;12.78;100.00;101969.44;5269173;28;20027;-75
2024/03/22 03:36:03;;;;;;;55.30;23.70;;;;;;;12.78;100.00;101961.38;5275238;28;20384;-75
2024/03/22 03:38:37;;;;;;;47.20;22.67;;;;;;;12.75;100.00;101962.53;5273070;28;20012;-75
2024/03/22 03:41:08;;;;;;;47.90;22.13;;;;;;;12.76;100.00;101949.91;5273722;28;20016;-75
2024/03/22 03:43:38;;;;;;;47.25;22.80;;;;;;;12.74;100.00;101943.81;5278962;27;20024;-74
2024/03/22 03:46:09;;;;;;;51.15;22.73;;;;;;;12.77;100.00;101947.06;5273227;28;20031;-75
2024/03/22 03:48:39;;;;;;;49.22;22.08;;;;;;;12.73;100.00;101950.22;5272252;28;20024;-75
2024/03/22 03:51:10;;;;;;;43.47;20.67;;;;;;;12.72;100.00;101954.75;5276224;28;20593;-75
2024/03/22 03:53:40;;;;;;;42.75;19.08;;;;;;;12.70;100.00;101949.53;5269138;28;20016;-75
2024/03/22 03:56:11;;;;;;;45.15;21.33;;;;;;;12.73;100.00;101942.97;5276385;28;20401;-75
2024/03/22 03:58:41;;;;;;;44.85;18.98;;;;;;;12.69;100.00;101946.97;5272613;28;20034;-75
2024/03/22 04:01:12;;;;;;;45.88;18.80;;;;;;;12.65;100.00;101941.06;5274777;28;20094;-75
2024/03/22 04:03:42;;;;;;;42.25;18.55;;;;;;;12.66;100.00;101934.69;5268409;28;20431;-75
2024/03/22 04:06:13;;;;;;;48.45;19.48;;;;;;;12.66;100.00;101940.06;5273093;28;20024;-74
2024/03/22 04:08:44;;;;;;;42.72;19.60;;;;;;;12.65;100.00;101924.91;5272307;28;20035;-75
2024/03/22 04:11:14;;;;;;;42.53;19.95;;;;;;;12.66;100.00;101934.69;5275235;28;20076;-74
2024/03/22 04:13:45;;;;;;;45.28;19.92;;;;;;;12.65;100.00;101921.34;5271575;28;20024;-75
2024/03/22 04:16:15;;;;;;;47.35;19.00;;;;;;;12.66;100.00;101923.91;5269381;28;20389;-75
2024/03/22 04:18:46;;;;;;;42.67;19.58;;;;;;;12.65;100.00;101924.91;5273598;28;20073;-75
2024/03/22 04:21:16;;;;;;;45.28;19.27;;;;;;;12.60;100.00;101924.53;5272905;28;20438;-74
2024/03/22 04:23:47;;;;;;;43.35;17.50;;;;;;;12.64;100.00;101928.59;5269277;28;20024;-74
2024/03/22 04:26:18;;;;;;;42.80;19.40;;;;;;;12.68;100.00;101929.13;5274878;28;20069;-75
2024/03/22 04:28:48;;;;;;;40.85;18.60;;;;;;;12.64;100.00;101925.88;5270221;28;20026;-74
2024/03/22 04:31:19;;;;;;;46.35;19.60;;;;;;;12.64;100.00;101927.75;5274111;28;20498;-74
2024/03/22 04:33:49;;;;;;;43.50;18.60;;;;;;;12.60;100.00;101929.91;5268509;28;20020;-75
2024/03/22 04:36:20;;;;;;;45.10;18.45;;;;;;;12.60;100.00;101923.66;5271555;28;20483;-75
2024/03/22 04:38:50;;;;;;;40.92;18.23;;;;;;;12.61;100.00;101922.69;5272640;28;20484;-74
2024/03/22 04:41:21;;;;;;;44.53;20.15;;;;;;;12.58;100.00;101923.81;5271141;28;20019;-74
2024/03/22 04:43:51;;;;;;;44.20;20.65;;;;;;;12.55;100.00;101921.47;5269004;28;20035;-75
2024/03/22 04:46:22;;;;;;;46.10;19.60;;;;;;;12.57;100.00;101924.81;5274494;28;20062;-75
2024/03/22 04:48:52;;;;;;;42.30;18.50;;;;;;;12.58;100.00;101926.50;5270150;28;20035;-74
2024/03/22 04:51:23;;;;;;;39.13;17.67;;;;;;;12.57;100.00;101923.97;5272823;28;20028;-74
2024/03/22 04:53:53;;;;;;;44.28;19.08;;;;;;;12.57;100.00;101921.28;5272531;28;20028;-75
2024/03/22 04:56:24;;;;;;;41.45;19.27;;;;;;;12.57;100.00;101926.69;5270298;28;20107;-75
2024/03/22 04:58:55;;;;;;;39.95;17.77;;;;;;;12.52;100.00;101924.44;5273684;28;20024;-75
2024/03/22 05:01:25;;;;;;;44.80;18.92;;;;;;;12.53;100.00;101918.03;5270300;27;20026;-74
2024/03/22 05:03:56;;;;;;;45.00;18.77;;;;;;;12.52;100.00;101916.38;5269365;28;20039;-75
2024/03/22 05:06:26;;;;;;;41.40;18.40;;;;;;;12.47;100.00;101910.59;5272683;27;20374;-75
2024/03/22 05:08:57;;;;;;;41.78;17.98;;;;;;;12.38;100.00;101903.44;5273035;28;20016;-74
2024/03/22 05:11:27;;;;;;;43.22;19.30;;;;;;;12.40;100.00;101906.84;5274045;28;20024;-75
2024/03/22 05:13:58;;;;;;;40.20;17.88;;;;;;;12.40;100.00;101901.44;5270741;28;20405;-75
2024/03/22 05:16:28;;;;;;;41.53;18.08;;;;;;;12.40;100.00;101904.16;5273155;28;20038;-75
2024/03/22 05:18:59;;;;;;;42.25;17.92;;;;;;;12.40;100.00;101909.53;5276567;28;20039;-75
2024/03/22 05:21:29;;;;;;;39.38;17.67;;;;;;;12.36;100.00;101903.59;5269840;28;20019;-75
2024/03/22 05:24:00;;;;;;;41.28;18.33;;;;;;;12.34;100.00;101892.13;5264116;28;20034;-75
2024/03/22 05:26:35;;;;;;;44.78;18.42;;;;;;;12.34;100.00;101897.50;5275880;28;20392;-75
2024/03/22 05:29:06;;;;;;;39.55;17.65;;;;;;;12.31;100.00;101905.06;5275235;28;20619;-74
2024/03/22 05:31:47;;;;;;;41.38;18.42;;;;;;;12.34;100.00;101900.19;5284393;28;20023;-75
2024/03/22 05:34:18;;;;;;;44.25;19.65;;;;;;;12.32;100.00;101895.97;5274695;28;20042;-74
2024/03/22 05:36:49;;;;;;;46.22;19.35;;;;;;;12.28;100.00;101883.81;5282004;28;20027;-75
2024/03/22 05:39:19;;;;;;;50.30;18.85;;;;;;;12.30;100.00;101897.94;5282440;28;20030;-75
2024/03/22 05:41:50;;;;;;;45.20;19.15;;;;;;;12.24;100.00;101887.81;5274893;28;20019;-75
2024/03/22 05:44:22;;;;;;;50.83;20.73;;;;;;;12.27;100.00;101882.13;5281677;28;20027;-75
2024/03/22 05:46:52;;;;;;;40.03;19.38;;;;;;;12.21;100.00;101877.38;5279441;28;20039;-75
2024/03/22 05:49:23;;;;;;;52.03;21.20;;;;;;;12.28;100.00;101883.81;5276967;28;20031;-75
2024/03/22 05:51:53;;;;;;;42.83;19.20;;;;;;;12.27;100.00;101892.88;5281280;28;20042;-75
2024/03/22 05:54:24;;;;;;;53.83;21.52;;;;;;;12.24;100.00;101887.81;5275178;28;20020;-74
2024/03/22 05:56:56;;;;;;;46.13;19.95;;;;;;;12.16;100.00;101881.34;5280716;28;20495;-75
2024/03/22 05:59:27;;;;;;;45.03;21.60;;;;;;;12.21;100.00;101888.13;5272475;28;20019;-75
2024/03/22 06:01:58;;;;;;;47.00;21.13;;;;;;;12.19;100.00;101897.16;5271941;28;20031;-75
2024/03/22 06:04:28;;;;;;;47.88;22.38;;;;;;;12.21;100.00;101888.97;5275278;28;20031;-75
2024/03/22 06:06:59;;;;;;;48.40;22.30;;;;;;;12.10;100.00;101890.03;5267612;28;20020;-75
2024/03/22 06:09:37;;;;;;;48.05;21.10;;;;;;;12.09;100.00;101891.00;5261706;28;20107;-75
2024/03/22 06:12:07;;;;;;;48.40;21.80;;;;;;;12.21;100.00;101886.28;5275214;28;20080;-75
2024/03/22 06:14:39;;;;;;;63.35;28.70;;;;;;;12.22;100.00;101890.66;5269568;28;20119;-75
2024/03/22 06:17:10;;;;;;;47.90;22.60;;;;;;;12.17;100.00;101885.72;5274008;28;20039;-74
2024/03/22 06:19:41;;;;;;;53.20;19.67;;;;;;;12.13;100.00;101876.25;5276151;28;20474;-75
2024/03/22 06:22:12;;;;;;;46.53;20.13;;;;;;;12.10;100.00;101875.75;5270813;28;20020;-75
2024/03/22 06:24:44;;;;;;;47.00;19.25;;;;;;;12.08;100.00;101877.72;5255100;28;20059;-75
2024/03/22 06:27:15;;;;;;;48.40;26.08;;;;;;;12.08;100.00;101880.41;5266261;28;20434;-74
2024/03/22 06:29:48;;;;;;;66.18;35.30;;;;;;;12.29;100.00;101880.13;5272042;28;20020;-75
2024/03/22 06:32:18;;;;;;;41.13;18.60;;;;;;;12.25;100.00;101882.28;5268450;28;20035;-75
2024/03/22 06:34:49;;;;;;;42.05;18.98;;;;;;;12.23;100.00;101881.56;5262638;28;20081;-74
2024/03/22 06:37:20;;;;;;;40.80;18.67;;;;;;;12.25;100.00;101878.72;5265147;28;20016;-75
2024/03/22 06:39:50;;;;;;;42.42;17.92;;;;;;;12.33;100.00;101874.28;5268781;28;20458;-74
2024/03/22 06:42:21;;;;;;;42.47;18.00;;;;;;;12.28;100.00;101873.91;5261726;28;20035;-74
2024/03/22 06:44:52;;;;;;;42.97;18.13;;;;;;;12.20;100.00;101876.53;5262751;28;20470;-74
2024/03/22 06:47:23;;;;;;;42.25;18.13;;;;;;;12.43;100.00;101887.66;5260686;28;20040;-74
2024/03/22 06:49:54;;;;;;;33.47;17.17;;;;;;;12.43;100.00;101895.75;5266465;28;20043;-74
2024/03/22 06:52:24;;;;;;;33.38;15.13;;;;;;;12.37;100.00;101881.06;5263578;28;20020;-74
2024/03/22 06:54:55;;;;;;;33.25;16.10;;;;;;;12.42;100.00;101885.97;5270711;28;20097;-75
2024/03/22 06:57:26;;;;;;;32.83;15.73;;;;;;;12.53;100.00;101888.44;5261297;28;20100;-74
2024/03/22 06:59:58;;;;;;;32.72;16.13;;;;;;;12.50;100.00;101890.59;5265602;28;20028;-75
2024/03/22 07:02:29;;;;;;;32.28;15.65;;;;;;;12.44;100.00;101900.13;5256918;28;20016;-74
2024/03/22 07:04:59;;;;;;;52.67;32.28;;;;;;;12.30;100.00;101892.56;5266988;28;20038;-74
2024/03/22 07:07:30;;;;;;;31.63;15.32;;;;;;;12.30;100.00;101895.25;5266199;28;20020;-74
2024/03/22 07:10:06;;;;;;;39.55;20.45;;;;;;;12.38;100.00;101882.75;5268521;28;20457;-74
2024/03/22 07:12:36;;;;;;;57.83;32.85;;;;;;;12.49;100.00;101875.44;5266347;28;20019;-75
2024/03/22 07:15:08;;;;;;;46.95;32.70;;;;;;;12.42;100.00;101875.22;5276027;28;20074;-74
2024/03/22 07:17:38;;;;;;;36.38;21.20;;;;;;;12.51;100.00;101879.69;5267001;28;20027;-75
2024/03/22 07:20:09;;;;;;;30.40;14.00;;;;;;;12.42;100.00;101873.38;5271482;28;20023;-75
2024/03/22 07:22:40;;;;;;;28.95;13.02;;;;;;;12.42;100.00;101870.69;5266448;28;20067;-75
2024/03/22 07:25:11;;;;;;;26.25;13.00;;;;;;;12.49;100.00;101865.53;5264919;28;21075;-75
2024/03/22 07:27:42;;;;;;;24.55;11.75;;;;;;;12.39;100.00;101870.13;5268385;28;20701;-75
2024/03/22 07:30:12;;;;;;;25.40;13.18;;;;;;;12.46;100.00;101870.38;5277954;28;20026;-75
2024/03/22 07:32:43;;;;;;;33.40;12.70;;;;;;;12.43;100.00;101872.38;5270920;28;20077;-74
2024/03/22 07:35:14;;;;;;;27.45;12.30;;;;;;;12.59;100.00;101866.28;5278748;28;20097;-74
2024/03/22 07:37:44;;;;;;;29.40;12.90;;;;;;;12.66;100.00;101871.91;5279155;28;20389;-73
2024/03/22 07:40:15;;;;;;;24.77;11.20;;;;;;;12.74;100.00;101881.91;5276162;28;20081;-73
2024/03/22 07:42:46;;;;;;;28.90;11.27;;;;;;;12.87;100.00;101874.28;5261211;28;20016;-74
2024/03/22 07:45:17;;;;;;;23.58;11.25;;;;;;;12.83;100.00;101875.59;5271919;28;20051;-73
2024/03/22 07:47:48;;;;;;;22.38;12.02;;;;;;;12.86;100.00;101864.50;5270864;28;20028;-73
2024/03/22 07:50:19;;;;;;;27.75;11.93;;;;;;;12.87;100.00;101872.41;5269521;28;20023;-73
2024/03/22 07:52:50;;;;;;;28.15;12.48;;;;;;;12.96;100.00;101862.56;5271769;28;20019;-73
2024/03/22 07:55:22;;;;;;;20.10;10.55;;;;;;;13.04;100.00;101862.59;5271577;28;20024;-74
2024/03/22 07:57:52;;;;;;;24.02;12.23;;;;;;;13.06;100.00;101868.69;5265307;28;20538;-73
2024/03/22 08:00:25;;;;;;;31.48;11.82;;;;;;;13.04;100.00;101869.84;5268238;28;20024;-74
2024/03/22 08:02:55;;;;;;;29.02;15.50;;;;;;;13.14;100.00;101876.81;5269832;28;20623;-74
2024/03/22 08:05:26;;;;;;;24.45;11.02;;;;;;;13.05;100.00;101864.31;5273355;28;20011;-74
2024/03/22 08:07:57;;;;;;;22.05;11.40;;;;;;;13.14;100.00;101866.03;5268604;28;20035;-73
2024/03/22 08:10:27;;;;;;;25.02;12.60;;;;;;;13.19;100.00;101873.66;5270435;28;20020;-73
2024/03/22 08:13:00;;;;;;;22.63;11.23;;;;;;;13.15;100.00;101873.16;5269455;28;20027;-74
2024/03/22 08:15:31;;;;;;;18.92;10.63;;;;;;;13.10;100.00;101874.59;5272623;27;20024;-74
2024/03/22 08:18:02;;;;;;;18.13;10.10;;;;;;;13.09;100.00;101867.53;5270660;28;20061;-73
2024/03/22 08:20:34;;;;;;;21.42;10.43;;;;;;;13.12;100.00;101857.28;5269959;28;20115;-73
2024/03/22 08:23:05;;;;;;;20.05;9.60;;;;;;;13.03;100.00;101862.78;5263753;28;20099;-74
2024/03/22 08:25:37;;;;;;;18.20;9.60;;;;;;;12.97;100.00;101866.94;5269870;28;20028;-74
2024/03/22 08:28:07;;;;;;;15.43;9.48;;;;;;;12.87;100.00;101869.72;5267893;28;20031;-73
2024/03/22 08:30:38;;;;;;;21.67;10.10;;;;;;;12.96;100.00;101871.50;5269516;28;20822;-74
2024/03/22 08:33:11;;;;;;;23.95;11.00;;;;;;;13.02;100.00;101866.47;5266499;28;20015;-74
2024/03/22 08:35:42;;;;;;;28.00;14.63;;;;;;;13.12;100.00;101868.06;5273335;28;20107;-74
2024/03/22 08:38:14;;;;;;;25.45;13.02;;;;;;;13.23;100.00;101861.59;5272989;28;20434;-73
2024/03/22 08:40:45;;;;;;;28.05;14.65;;;;;;;13.09;100.00;101865.66;5272256;28;20505;-74
2024/03/22 08:43:16;;;;;;;27.23;13.20;;;;;;;13.32;100.00;101859.78;5268691;28;20017;-74
2024/03/22 08:45:47;;;;;;;39.60;19.70;;;;;;;13.56;100.00;101859.94;5264195;28;20472;-74
2024/03/22 08:48:19;;;;;;;20.38;10.38;;;;;;;13.50;100.00;101844.38;5268831;28;20030;-73
2024/03/22 08:50:50;;;;;;;17.90;9.32;;;;;;;13.60;100.00;101838.88;5265516;28;20129;-74
2024/03/22 08:53:22;;;;;;;24.50;10.95;;;;;;;13.60;100.00;101831.63;5268075;28;20381;-73
2024/03/22 08:55:54;;;;;;;26.98;11.43;;;;;;;13.73;100.00;101833.88;5269520;28;20039;-73
2024/03/22 08:58:24;;;;;;;18.83;10.15;;;;;;;13.77;100.00;101832.53;5270715;28;20028;-74
2024/03/22 09:00:55;;;;;;;19.65;9.63;;;;;;;13.75;100.00;101834.53;5271667;28;20028;-74
2024/03/22 09:03:26;;;;;;;17.58;8.50;;;;;;;13.59;100.00;101826.41;5263988;28;20024;-74
2024/03/22 09:05:57;;;;;;;18.05;8.88;;;;;;;13.49;100.00;101831.91;5268166;28;20028;-73
2024/03/22 09:08:29;;;;;;;17.08;9.10;;;;;;;13.41;100.00;101821.94;5264853;28;20121;-74
2024/03/22 09:10:59;;;;;;;22.35;9.38;;;;;;;13.53;100.00;101817.09;5271943;28;20028;-73
2024/03/22 09:13:31;;;;;;;15.70;7.90;;;;;;;13.64;100.00;101834.84;5269219;27;20030;-74
2024/03/22 09:16:02;;;;;;;20.80;9.65;;;;;;;13.63;100.00;101822.38;5270672;28;20028;-74
2024/03/22 09:18:33;;;;;;;17.75;8.77;;;;;;;13.66;100.00;101820.22;5269128;28;20062;-74
2024/03/22 09:21:04;;;;;;;20.88;9.05;;;;;;;13.59;100.00;101821.84;5269654;28;20055;-74
2024/03/22 09:23:35;;;;;;;14.73;8.23;;;;;;;13.63;100.00;101828.59;5263246;27;20032;-74
2024/03/22 09:26:06;;;;;;;16.50;9.32;;;;;;;13.54;100.00;101820.66;5268432;28;20055;-74
2024/03/22 09:28:36;;;;;;;19.05;9.10;;;;;;;13.60;100.00;101815.44;5263836;27;20075;-74
2024/03/22 09:31:07;;;;;;;17.00;8.77;;;;;;;13.51;100.00;101811.03;5272607;28;20023;-73
2024/03/22 09:33:38;;;;;;;19.45;8.93;;;;;;;13.58;100.00;101813.94;5267262;28;20036;-74
2024/03/22 09:36:09;;;;;;;20.15;9.45;;;;;;;13.70;100.00;101818.00;5266099;28;20028;-74
2024/03/22 09:38:40;;;;;;;17.70;9.52;;;;;;;13.74;100.00;101817.53;5266887;28;20531;-73
2024/03/22 09:41:13;;;;;;;21.60;9.60;;;;;;;13.73;100.00;101801.50;5267348;28;20489;-74
2024/03/22 09:43:50;;;;;;;22.83;9.52;;;;;;;13.81;100.00;101798.84;5265528;28;20016;-74
2024/03/22 09:46:21;;;;;;;18.13;9.38;;;;;;;13.65;100.00;101802.31;5270855;28;20031;-74
2024/03/22 09:48:53;;;;;;;30.88;13.02;;;;;;;13.70;100.00;101805.41;5264917;28;20020;-74
2024/03/22 09:51:24;;;;;;;22.20;11.60;;;;;;;13.76;100.00;101801.19;5267457;28;20028;-74
2024/03/22 09:53:55;;;;;;;19.23;9.55;;;;;;;13.77;100.00;101802.03;5266212;28;20635;-74
2024/03/22 09:56:27;;;;;;;21.23;10.20;;;;;;;13.86;100.00;101801.06;5270900;28;20032;-74
2024/03/22 09:58:58;;;;;;;20.48;9.45;;;;;;;13.78;100.00;101806.41;5269870;28;20116;-74
2024/03/22 10:01:30;;;;;;;25.30;10.32;;;;;;;13.66;100.00;101801.34;5267663;28;20039;-73
2024/03/22 10:04:00;;;;;;;23.35;10.65;;;;;;;13.66;100.00;101801.34;5270252;28;20397;-74
2024/03/22 10:06:31;;;;;;;21.13;11.18;;;;;;;13.64;100.00;101797.94;5268989;28;20027;-74
2024/03/22 10:09:04;;;;;;;27.27;12.63;;;;;;;13.71;100.00;101788.19;5270192;28;20493;-74
2024/03/22 10:11:36;;;;;;;23.40;10.13;;;;;;;13.90;100.00;101784.34;5264560;28;20501;-74
2024/03/22 10:14:06;;;;;;;23.88;12.52;;;;;;;14.09;100.00;101793.16;5268088;28;20066;-74
2024/03/22 10:16:37;;;;;;;26.85;11.60;;;;;;;14.27;100.00;101787.63;5271848;28;20020;-74
2024/03/22 10:19:07;;;;;;;23.75;10.13;;;;;;;14.33;100.00;101795.06;5268907;28;20187;-74
2024/03/22 10:21:38;;;;;;;19.75;9.65;;;;;;;14.38;100.00;101787.28;5273746;28;20053;-74
2024/03/22 10:24:08;;;;;;;19.83;9.25;;;;;;;14.37;100.00;101777.50;5264185;28;20028;-74
2024/03/22 10:26:39;;;;;;;21.98;10.57;;;;;;;14.41;100.00;101784.28;5270551;28;20031;-74
2024/03/22 10:29:11;;;;;;;20.95;9.65;;;;;;;14.37;100.00;101780.22;5268483;28;20031;-74
2024/03/22 10:31:42;;;;;;;23.38;11.20;;;;;;;14.47;100.00;101780.88;5269716;28;20024;-74
2024/03/22 10:34:14;;;;;;;25.05;10.27;;;;;;;14.38;100.00;101779.19;5269171;28;20132;-74
2024/03/22 10:36:47;;;;;;;24.17;10.32;;;;;;;14.38;100.00;101781.91;5266804;28;20123;-74
2024/03/22 10:39:18;;;;;;;23.15;11.23;;;;;;;14.33;100.00;101774.31;5272603;28;20023;-74
2024/03/22 10:41:49;;;;;;;20.85;9.00;;;;;;;14.63;100.00;101782.75;5269271;28;20214;-74
2024/03/22 10:44:21;;;;;;;33.20;18.50;;;;;;;14.74;100.00;101782.41;5269528;28;20055;-74
2024/03/22 10:46:55;;;;;;;335.98;173.88;;;;;;;14.67;100.00;101768.75;5268781;28;20020;-74
2024/03/22 10:49:30;;;;;;;58.40;39.63;;;;;;;14.46;100.00;101777.34;5261387;28;20099;-74
2024/03/22 10:52:03;;;;;;;24.50;12.23;;;;;;;14.34;100.00;101775.13;5271962;28;20447;-74
2024/03/22 10:54:39;;;;;;;23.45;11.00;;;;;;;14.37;100.00;101775.66;5268507;27;20560;-74
2024/03/22 10:57:13;;;;;;;26.15;11.35;;;;;;;14.31;100.00;101780.84;5273214;28;20028;-74
2024/03/22 10:59:46;;;;;;;23.45;10.70;;;;;;;14.33;100.00;101773.47;5273296;28;20032;-74
2024/03/22 11:02:17;;;;;;;27.88;14.00;;;;;;;14.28;100.00;101773.97;5269618;28;20469;-74
2024/03/22 11:04:57;;;;;;;23.85;11.82;;;;;;;14.20;100.00;101773.94;5277145;28;20469;-74
2024/03/22 11:07:31;;;;;;;27.25;12.15;;;;;;;14.22;100.00;101767.38;5272014;28;20027;-74
2024/03/22 11:10:03;;;;;;;24.55;11.05;;;;;;;14.26;100.00;101765.19;5274676;28;20028;-74
2024/03/22 11:12:37;;;;;;;22.75;10.52;;;;;;;14.21;100.00;101768.41;5274091;28;20147;-74
2024/03/22 11:15:10;;;;;;;23.10;10.45;;;;;;;14.17;100.00;101767.03;5273285;28;20435;-74
2024/03/22 11:17:42;;;;;;;20.13;10.75;;;;;;;14.08;100.00;101767.19;5273266;28;20046;-74
2024/03/22 11:20:13;;;;;;;23.67;10.02;;;;;;;14.03;100.00;101759.59;5267255;28;20368;-74